createdAt,value
2023-01-21T00:02:10.619Z,0.46
2023-01-21T00:05:32.233Z,0.37
2023-01-21T00:08:53.940Z,0.43
2023-01-21T00:12:17.343Z,0.45
2023-01-21T00:15:39.025Z,0.49
2023-01-21T00:19:00.997Z,0.48
2023-01-21T00:22:22.797Z,0.55
2023-01-21T00:25:44.679Z,0.50
2023-01-21T00:29:07.968Z,0.33
2023-01-21T00:32:29.539Z,0.41
2023-01-21T00:35:58.637Z,0.51
2023-01-21T00:39:20.310Z,0.59
2023-01-21T00:42:42.296Z,0.62
2023-01-21T00:46:05.651Z,0.56
2023-01-21T00:49:27.242Z,0.59
2023-01-21T00:52:48.883Z,0.52
2023-01-21T00:56:12.008Z,0.55
2023-01-21T00:59:33.950Z,0.50
2023-01-21T01:02:57.214Z,0.48
2023-01-21T01:06:19.980Z,0.54
2023-01-21T01:09:41.770Z,0.47
2023-01-21T01:13:03.454Z,0.54
2023-01-21T01:16:25.549Z,0.59
2023-01-21T01:19:48.528Z,0.62
2023-01-21T01:23:10.249Z,0.55
2023-01-21T01:26:31.955Z,0.56
2023-01-21T01:29:53.490Z,0.65
2023-01-21T01:33:15.354Z,0.64
2023-01-21T01:36:38.563Z,0.71
2023-01-21T01:40:00.671Z,0.71
2023-01-21T01:43:24.635Z,0.79
2023-01-21T01:46:46.354Z,0.75
2023-01-21T01:50:12.764Z,0.78
2023-01-21T01:53:38.320Z,0.76
2023-01-21T01:57:03.372Z,0.81
2023-01-21T02:00:26.611Z,0.83
2023-01-21T02:03:54.399Z,0.85
2023-01-21T02:07:18.277Z,0.91
2023-01-21T02:10:42.727Z,0.98
2023-01-21T02:14:05.039Z,1.03
2023-01-21T02:17:41.299Z,1.04
2023-01-21T02:21:51.450Z,1.07
2023-01-21T02:25:59.726Z,1.07
2023-01-21T02:29:49.699Z,1.05
2023-01-21T02:33:47.625Z,0.94
2023-01-21T02:37:17.673Z,0.92
2023-01-21T02:40:48.161Z,0.82
2023-01-21T02:44:14.821Z,0.90
2023-01-21T02:47:41.701Z,0.87
2023-01-21T02:51:05.735Z,0.87
2023-01-21T02:54:54.063Z,0.88
2023-01-21T02:58:19.716Z,0.89
2023-01-21T03:01:54.309Z,0.87
2023-01-21T03:05:26.046Z,0.86
2023-01-21T03:08:54.067Z,0.97
2023-01-21T03:12:32.478Z,1.03
2023-01-21T03:16:15.673Z,1.07
2023-01-21T03:19:42.436Z,1.03
2023-01-21T03:23:06.507Z,1.11
2023-01-21T03:26:32.863Z,1.14
2023-01-21T03:30:00.087Z,1.09
2023-01-21T03:33:23.813Z,1.06
2023-01-21T03:36:50.190Z,1.11
2023-01-21T03:40:19.917Z,1.14
2023-01-21T03:43:41.849Z,1.13
2023-01-21T03:47:14.616Z,1.08
2023-01-21T03:50:41.239Z,1.11
2023-01-21T03:54:03.039Z,1.15
2023-01-21T03:57:24.452Z,1.09
2023-01-21T04:00:46.799Z,1.13
2023-01-21T04:04:11.107Z,1.19
2023-01-21T04:07:32.626Z,1.18
2023-01-21T04:10:54.254Z,1.19
2023-01-21T04:14:15.410Z,1.21
2023-01-21T04:17:36.689Z,1.21
2023-01-21T04:20:59.875Z,1.26
2023-01-21T04:24:21.682Z,1.26
2023-01-21T04:27:42.995Z,1.21
2023-01-21T04:31:04.256Z,1.24
2023-01-21T04:34:26.147Z,1.25
2023-01-21T04:37:49.311Z,1.23
2023-01-21T04:41:11.139Z,1.18
2023-01-21T04:44:33.098Z,1.22
2023-01-21T04:47:54.353Z,1.04
2023-01-21T04:51:15.983Z,1.03
2023-01-21T04:54:39.070Z,0.85
2023-01-21T04:58:00.787Z,0.91
2023-01-21T05:01:22.574Z,0.97
2023-01-21T05:04:44.643Z,0.86
2023-01-21T05:08:06.758Z,0.95
2023-01-21T05:11:29.919Z,1.04
2023-01-21T05:14:53.981Z,1.11
2023-01-21T05:18:15.510Z,1.12
2023-01-21T05:21:37.457Z,1.07
2023-01-21T05:25:00.503Z,1.03
2023-01-21T05:28:23.918Z,1.05
2023-01-21T05:31:46.314Z,1.14
2023-01-21T05:35:08.981Z,1.18
2023-01-21T05:38:31.270Z,1.21
2023-01-21T05:41:52.994Z,1.25
2023-01-21T05:45:16.653Z,1.31
2023-01-21T05:48:38.150Z,1.27
2023-01-21T05:51:59.765Z,1.23
2023-01-21T05:55:21.550Z,1.23
2023-01-21T05:58:43.247Z,1.30
2023-01-21T06:02:06.447Z,1.35
2023-01-21T06:05:28.123Z,1.39
2023-01-21T06:08:49.813Z,1.25
2023-01-21T06:12:11.659Z,1.13
2023-01-21T06:15:33.721Z,1.13
2023-01-21T06:18:56.967Z,1.10
2023-01-21T06:22:19.493Z,1.14
2023-01-21T06:25:43.571Z,1.19
2023-01-21T06:29:05.341Z,1.18
2023-01-21T06:32:27.332Z,1.23
2023-01-21T06:35:50.476Z,1.26
2023-01-21T06:39:12.410Z,1.35
2023-01-21T06:42:34.347Z,1.39
2023-01-21T06:45:56.375Z,1.38
2023-01-21T06:49:18.081Z,1.36
2023-01-21T06:52:43.351Z,1.38
2023-01-21T06:56:05.395Z,1.34
2023-01-21T06:59:27.144Z,1.21
2023-01-21T07:02:48.954Z,1.13
2023-01-21T07:06:10.695Z,1.13
2023-01-21T07:09:33.727Z,1.14
2023-01-21T07:12:55.928Z,0.99
2023-01-21T07:16:17.542Z,0.97
2023-01-21T07:19:39.358Z,0.93
2023-01-21T07:23:01.108Z,0.91
2023-01-21T07:26:24.774Z,0.91
2023-01-21T07:29:46.658Z,0.93
2023-01-21T07:33:10.047Z,0.96
2023-01-21T07:36:32.047Z,0.96
2023-01-21T07:39:55.896Z,1.01
2023-01-21T07:43:18.902Z,1.01
2023-01-21T07:46:40.695Z,0.95
2023-01-21T07:50:04.997Z,1.03
2023-01-21T07:53:26.870Z,0.97
2023-01-21T07:56:48.630Z,1.02
2023-01-21T08:00:13.545Z,1.05
2023-01-21T08:03:35.398Z,1.05
2023-01-21T08:06:58.855Z,1.12
2023-01-21T08:10:22.253Z,1.03
2023-01-21T08:13:44.561Z,1.16
2023-01-21T08:17:07.951Z,1.06
2023-01-21T08:20:29.371Z,1.06
2023-01-21T08:23:51.280Z,1.05
2023-01-21T08:27:13.134Z,1.22
2023-01-21T08:30:34.559Z,1.24
2023-01-21T08:33:57.878Z,1.28
2023-01-21T08:37:19.565Z,1.31
2023-01-21T08:40:41.430Z,1.29
2023-01-21T08:44:03.139Z,1.39
2023-01-21T08:47:25.118Z,1.45
2023-01-21T08:50:48.098Z,1.48
2023-01-21T08:54:10.195Z,1.50
2023-01-21T08:57:32.251Z,1.55
2023-01-21T09:00:53.875Z,1.63
2023-01-21T09:04:15.725Z,1.65
2023-01-21T09:07:39.231Z,1.63
2023-01-21T09:11:04.254Z,1.57
2023-01-21T09:14:27.570Z,1.55
2023-01-21T09:17:49.402Z,1.66
2023-01-21T09:21:12.397Z,1.72
2023-01-21T09:24:35.380Z,1.78
2023-01-21T09:27:56.772Z,1.81
2023-01-21T09:31:20.587Z,1.90
2023-01-21T09:34:42.198Z,1.81
2023-01-21T09:38:03.993Z,1.87
2023-01-21T09:41:31.459Z,1.86
2023-01-21T09:44:56.699Z,1.85
2023-01-21T09:48:29.723Z,1.86
2023-01-21T09:51:55.856Z,1.88
2023-01-21T09:55:19.978Z,1.94
2023-01-21T09:58:49.122Z,1.94
2023-01-21T10:02:21.743Z,2.03
2023-01-21T10:05:54.732Z,2.10
2023-01-21T10:09:45.421Z,2.08
2023-01-21T10:13:21.563Z,2.08
2023-01-21T10:16:50.134Z,2.13
2023-01-21T10:20:17.133Z,2.08
2023-01-21T10:23:43.932Z,2.07
2023-01-21T10:27:06.500Z,2.12
2023-01-21T10:30:34.014Z,2.24
2023-01-21T10:33:57.719Z,2.26
2023-01-21T10:37:30.358Z,2.29
2023-01-21T10:41:02.517Z,2.40
2023-01-21T10:44:30.007Z,2.43
2023-01-21T10:48:02.344Z,2.58
2023-01-21T10:51:32.043Z,2.65
2023-01-21T10:55:03.803Z,2.75
2023-01-21T10:58:31.413Z,2.76
2023-01-21T11:02:02.207Z,2.85
2023-01-21T11:05:26.198Z,2.92
2023-01-21T11:08:52.306Z,3.01
2023-01-21T11:12:18.607Z,2.92
2023-01-21T11:15:45.579Z,3.01
2023-01-21T11:19:08.940Z,3.10
2023-01-21T11:22:32.198Z,3.06
2023-01-21T11:26:02.604Z,3.13
2023-01-21T11:29:26.285Z,3.17
2023-01-21T11:32:47.906Z,3.22
2023-01-21T11:36:16.003Z,3.17
2023-01-21T11:39:41.703Z,3.28
2023-01-21T11:43:05.095Z,3.27
2023-01-21T11:46:35.780Z,3.19
2023-01-21T11:50:05.334Z,3.35
2023-01-21T11:53:26.978Z,3.40
2023-01-21T11:56:57.150Z,3.48
2023-01-21T12:00:23.217Z,3.47
2023-01-21T12:03:49.534Z,3.51
2023-01-21T12:07:20.745Z,3.44
2023-01-21T12:10:45.290Z,3.42
2023-01-21T12:14:17.487Z,3.44
2023-01-21T12:17:52.267Z,3.46
2023-01-21T12:21:21.402Z,3.54
2023-01-21T12:25:09.505Z,3.52
2023-01-21T12:28:55.594Z,3.43
2023-01-21T12:32:23.853Z,3.46
2023-01-21T12:35:50.055Z,3.43
2023-01-21T12:39:20.878Z,3.46
2023-01-21T12:42:47.167Z,3.47
2023-01-21T12:46:17.785Z,3.62
2023-01-21T12:49:57.131Z,3.66
2023-01-21T12:53:29.614Z,3.66
2023-01-21T12:56:58.239Z,3.54
2023-01-21T13:00:23.357Z,3.56
2023-01-21T13:03:56.675Z,3.56
2023-01-21T13:07:31.815Z,3.56
2023-01-21T13:11:02.294Z,3.66
2023-01-21T13:14:29.399Z,3.69
2023-01-21T13:17:55.227Z,3.70
2023-01-21T13:21:28.312Z,3.67
2023-01-21T13:25:03.254Z,3.68
2023-01-21T13:28:31.358Z,3.57
2023-01-21T13:32:11.819Z,3.54
2023-01-21T13:35:44.080Z,3.64
2023-01-21T13:39:11.110Z,3.67
2023-01-21T13:42:39.965Z,3.63
2023-01-21T13:46:17.447Z,3.55
2023-01-21T13:50:01.788Z,3.62
2023-01-21T13:53:47.759Z,3.65
2023-01-21T13:57:34.969Z,3.55
2023-01-21T14:01:00.879Z,3.60
2023-01-21T14:04:30.816Z,3.65
2023-01-21T14:07:58.429Z,3.57
2023-01-21T14:11:26.201Z,3.62
2023-01-21T14:15:08.432Z,3.54
2023-01-21T14:18:48.684Z,3.55
2023-01-21T14:22:27.955Z,3.53
2023-01-21T14:26:09.999Z,3.61
2023-01-21T14:29:36.452Z,3.56
2023-01-21T14:33:02.802Z,3.57
2023-01-21T14:36:37.090Z,3.53
2023-01-21T14:40:10.366Z,3.55
2023-01-21T14:43:49.273Z,3.65
2023-01-21T14:47:15.962Z,3.69
2023-01-21T14:50:52.313Z,3.66
2023-01-21T14:54:18.081Z,3.62
2023-01-21T14:57:43.420Z,3.58
2023-01-21T15:01:08.000Z,3.58
2023-01-21T15:04:32.196Z,3.52
2023-01-21T15:08:06.292Z,3.44
2023-01-21T15:11:32.489Z,3.43
2023-01-21T15:15:00.099Z,3.44
2023-01-21T15:18:35.573Z,3.27
2023-01-21T15:22:16.464Z,3.23
2023-01-21T15:25:38.283Z,3.20
2023-01-21T15:29:24.710Z,3.18
2023-01-21T15:32:49.130Z,3.20
2023-01-21T15:36:25.851Z,3.24
2023-01-21T15:39:49.380Z,3.31
2023-01-21T15:43:20.078Z,3.27
2023-01-21T15:46:53.014Z,3.20
2023-01-21T15:50:21.920Z,3.09
2023-01-21T15:53:56.422Z,2.93
2023-01-21T15:57:43.845Z,2.98
2023-01-21T16:01:09.686Z,2.91
2023-01-21T16:04:38.455Z,2.93
2023-01-21T16:08:22.092Z,2.90
2023-01-21T16:12:01.955Z,2.83
2023-01-21T16:15:35.433Z,2.80
2023-01-21T16:19:01.351Z,2.77
2023-01-21T16:22:26.005Z,2.73
2023-01-21T16:25:50.399Z,2.67
2023-01-21T16:29:13.942Z,2.60
2023-01-21T16:32:37.464Z,2.60
2023-01-21T16:36:05.608Z,2.57
2023-01-21T16:39:27.490Z,2.57
2023-01-21T16:43:07.135Z,2.57
2023-01-21T16:46:34.588Z,2.59
2023-01-21T16:49:56.358Z,2.65
2023-01-21T16:53:20.105Z,2.67
2023-01-21T16:56:49.041Z,2.67
2023-01-21T17:00:23.421Z,2.66
2023-01-21T17:03:47.202Z,2.71
2023-01-21T17:07:15.035Z,2.76
2023-01-21T17:10:40.080Z,2.77
2023-01-21T17:14:08.218Z,2.74
2023-01-21T17:17:37.058Z,2.77
2023-01-21T17:21:06.051Z,2.77
2023-01-21T17:24:32.423Z,2.78
2023-01-21T17:27:55.480Z,2.85
2023-01-21T17:31:27.251Z,2.89
2023-01-21T17:35:05.104Z,2.91
2023-01-21T17:38:30.082Z,2.86
2023-01-21T17:41:51.957Z,2.92
2023-01-21T17:45:21.985Z,2.88
2023-01-21T17:48:47.168Z,2.88
2023-01-21T17:52:19.976Z,2.85
2023-01-21T17:55:41.931Z,2.88
2023-01-21T17:59:03.654Z,2.79
2023-01-21T18:02:24.960Z,2.81
2023-01-21T18:05:47.383Z,2.78
2023-01-21T18:09:13.238Z,2.74
2023-01-21T18:12:34.948Z,2.62
2023-01-21T18:15:56.682Z,2.59
2023-01-21T18:19:29.523Z,2.64
2023-01-21T18:22:51.917Z,2.67
2023-01-21T18:26:21.387Z,2.77
2023-01-21T18:29:43.588Z,2.78
2023-01-21T18:33:05.395Z,2.77
2023-01-21T18:36:27.266Z,2.73
2023-01-21T18:39:48.973Z,2.70
2023-01-21T18:43:12.086Z,2.71
2023-01-21T18:46:33.795Z,2.68
2023-01-21T18:49:57.791Z,2.60
2023-01-21T18:53:19.784Z,2.66
2023-01-21T18:56:42.453Z,2.76
2023-01-21T19:00:14.106Z,2.73
2023-01-21T19:03:35.462Z,2.76
2023-01-21T19:06:57.115Z,2.77
2023-01-21T19:10:20.975Z,2.67
2023-01-21T19:13:42.410Z,2.70
2023-01-21T19:17:05.562Z,2.71
2023-01-21T19:20:29.128Z,2.72
2023-01-21T19:23:50.860Z,2.77
2023-01-21T19:27:16.828Z,2.73
2023-01-21T19:30:38.735Z,2.67
2023-01-21T19:34:01.698Z,2.73
2023-01-21T19:37:25.550Z,2.81
2023-01-21T19:40:48.162Z,2.87
2023-01-21T19:44:09.574Z,2.88
2023-01-21T19:47:31.330Z,2.91
2023-01-21T19:50:54.052Z,2.79
2023-01-21T19:54:15.701Z,2.75
2023-01-21T19:57:38.249Z,2.74
2023-01-21T20:01:00.097Z,2.67
2023-01-21T20:04:21.933Z,2.72
2023-01-21T20:07:47.301Z,2.75
2023-01-21T20:11:09.172Z,2.74
2023-01-21T20:14:31.031Z,2.70
2023-01-21T20:17:55.033Z,2.65
2023-01-21T20:21:17.136Z,2.59
2023-01-21T20:24:40.373Z,2.59
2023-01-21T20:28:03.874Z,2.59
2023-01-21T20:31:29.229Z,2.60
2023-01-21T20:34:50.894Z,2.59
2023-01-21T20:38:14.956Z,2.67
2023-01-21T20:41:39.034Z,2.73
2023-01-21T20:45:00.694Z,2.63
2023-01-21T20:48:27.123Z,2.71
2023-01-21T20:51:48.690Z,2.65
2023-01-21T20:55:11.227Z,2.59
2023-01-21T20:58:34.826Z,2.54
2023-01-21T21:01:56.537Z,2.58
2023-01-21T21:05:19.446Z,2.62
2023-01-21T21:08:42.647Z,2.60
2023-01-21T21:12:04.359Z,2.54
2023-01-21T21:15:29.750Z,2.58
2023-01-21T21:18:51.859Z,2.63
2023-01-21T21:22:14.213Z,2.64
2023-01-21T21:25:41.105Z,2.67
2023-01-21T21:29:02.690Z,2.61
2023-01-21T21:32:25.912Z,2.68
2023-01-21T21:35:47.880Z,2.65
2023-01-21T21:39:09.744Z,2.66
2023-01-21T21:42:48.725Z,2.63
2023-01-21T21:46:30.433Z,2.66
2023-01-21T21:49:53.407Z,2.64
2023-01-21T21:53:15.329Z,2.70
2023-01-21T21:56:38.239Z,2.67
2023-01-21T21:59:59.968Z,2.58
2023-01-21T22:03:21.315Z,2.62
2023-01-21T22:06:44.546Z,2.61
2023-01-21T22:10:07.485Z,2.65
2023-01-21T22:13:30.058Z,2.68
2023-01-21T22:16:53.986Z,2.72
2023-01-21T22:20:15.736Z,2.74
2023-01-21T22:23:38.702Z,2.75
2023-01-21T22:27:00.038Z,2.69
2023-01-21T22:30:21.717Z,2.75
2023-01-21T22:33:43.142Z,2.76
2023-01-21T22:37:04.731Z,2.67
2023-01-21T22:40:28.245Z,2.66
2023-01-21T22:43:51.237Z,2.64
2023-01-21T22:47:13.570Z,2.55
2023-01-21T22:50:35.079Z,2.52
2023-01-21T22:53:57.318Z,2.57
2023-01-21T22:57:20.492Z,2.58
2023-01-21T23:00:42.234Z,2.54
2023-01-21T23:04:04.068Z,2.45
2023-01-21T23:07:25.910Z,2.45
2023-01-21T23:10:48.617Z,2.45
2023-01-21T23:14:11.653Z,2.48
2023-01-21T23:17:33.217Z,2.53
2023-01-21T23:20:55.372Z,2.54
2023-01-21T23:24:16.887Z,2.43
2023-01-21T23:27:38.711Z,2.44
2023-01-21T23:31:06.193Z,2.39
2023-01-21T23:34:27.770Z,2.52
2023-01-21T23:37:49.597Z,2.58
2023-01-21T23:41:16.867Z,2.61
2023-01-21T23:44:38.817Z,2.57
2023-01-21T23:48:01.907Z,2.57
2023-01-21T23:51:23.880Z,2.59
2023-01-21T23:54:46.118Z,2.59
2023-01-21T23:58:07.860Z,2.66
